Terminal Aerodrome Forecast
Issued by NWS Grand Forks, ND

Home | Current Version | Previous Version | Text Only | Print | Product List | Glossary On
Versions: 1 2 3 4 5 6 7 8 9 10 11 12 13 14 15 16 17 18 19 20
000
FTUS43 KFGF 301404 AAA
TAFGFK
TAF AMD
KGFK 301404Z 3014/3112 15006KT P6SM SCT080
      TEMPO 3014/3015 -TSRA BKN080CB
     FM310000 11007KT P6SM SHRA BKN090
      TEMPO 3101/3103 3SM TSRA BKN040CB
     FM310300 10007KT P6SM SHRA OVC025=

USA.gov is the U.S. government's official web portal to all federal, state and local government web resources and services.